Weather observations for the past three days for
Redwood Falls Municipal Airport
Metric (Imperial)
Date Time (cdt) Wind (kph) Vis. (km) Weather Sky Cond. Temperature (ºC) Relative Humidity Wind Chill (°C) Heat Index (°C) Pressure Precipitation (cm)
Air Dwpt 6 hour altimeter (cm) sea level (mb) 1 hr 3 hr 6 hr
Max. Min.
10 10:53 N 15 16.09 Fair CLR 14.4 -2.2 32% 76.53 1020.7
10 09:53 N 15 16.09 Fair CLR 12.8 -2.8 34% 76.5 1020.4
10 08:53 N 9 16.09 Fair CLR 10 -0.6 48% 9 76.5 1020.4
10 07:53 NW 6 16.09 A Few Clouds FEW090 6.7 -2.2 53% 76.48 1020.1
10 06:53 N 6 16.09 Mostly Cloudy BKN090 3.3 -2.8 6.7 2.8 65% 76.43 1019.4
10 05:53 Calm 16.09 Mostly Cloudy BKN095 3.9 -3.9 57% 76.38 1018.9
10 04:53 SW 15 16.09 Fair CLR 5 -3.9 53% 2 76.35 1018.5
10 03:53 W 11 16.09 Overcast OVC090 3.9 -3.3 60% 1 76.33 1018.1
10 02:53 W 6 16.09 Overcast OVC090 4.4 -2.2 63% 76.3 1017.6
10 01:53 SW 9 16.09 Mostly Cloudy BKN090 5.6 -3.3 53% 4 76.28 1017.4
10 00:53 Calm 16.09 Fair CLR 6.7 -3.3 14.4 6.1 49% 76.28 1017.3
09 23:53 W 6 16.09 Fair CLR 7.8 -5 40% 76.25 1016.8
09 22:53 NW 7 16.09 Fair CLR 8.9 -5 37% 8 76.23 1016.6
09 21:53 NW 7 16.09 Fair CLR 10 -5 35% 9 76.17 1015.9
09 20:53 N 9 16.09 Fair CLR 11.1 -5 32% 76.1 1014.8
09 19:53 NW 19 G 35 16.09 Fair CLR 13.3 -5 28% 76.05 1014.0
09 18:53 N 15 G 31 16.09 Fair CLR 14.4 -4.4 16.1 14.4 27% 76 1013.3
09 17:53 NW 26 G 43 16.09 Fair CLR 15 -5.6 24% 75.95 1012.7
09 16:53 N 28 G 43 16.09 Fair CLR 15.6 -5 24% 75.9 1012.1
09 15:53 NW 20 G 46 16.09 Fair CLR 15.6 -5 24% 75.87 1011.7
09 14:53 N 24 G 63 16.09 Fair CLR 16.1 -5 23% 75.84 1011.3
09 13:53 N 31 G 59 16.09 Fair CLR 15.6 -4.4 25% 75.82 1011.1
09 12:53 N 31 G 54 16.09 Fair CLR 14.4 -3.9 15.6 9.4 28% 75.79 1010.8
09 11:53 N 30 G 48 16.09 Fair CLR 15 -1.7 32% 75.77 1010.4
09 10:53 N 30 G 44 16.09 Fair CLR 13.9 0 39% 75.74 1009.9
09 09:53 N 22 G 39 16.09 Fair CLR 12.2 2.2 51% 75.69 1009.2
09 08:53 N 22 G 41 16.09 A Few Clouds FEW020 10.6 5 69% 75.64 1008.4
09 07:53 NW 20 G 37 16.09 Fair CLR 9.4 6.7 83% 7 75.54 1007.1
09 06:53 NW 26 G 46 16.09 Overcast BKN021 OVC070 10 7.8 11.1 8.9 86% 7 75.46 1006.0 0.03
09 05:53 W 24 16.09 Light Rain OVC060 10 7.2 83% 7 75.39 1005.0 0.03
09 04:53 W 7 16.09 Overcast OVC110 10 2.2 59% 9 75.39 1005.0
09 03:53 NW 17 16.09 Mostly Cloudy BKN110 10.6 -0.6 46% 75.34 1004.1
09 02:53 W 15 16.09 Fair CLR 10 -1.1 46% 8 75.16 1001.9
09 01:53 SW 17 16.09 Fair CLR 10 -1.1 46% 8 75.18 1002.3
09 00:53 SW 15 16.09 Fair CLR 10 -1.1 21.1 9.4 46% 8 75.23 1003.0
08 23:53 SW 11 16.09 Fair CLR 11.7 -1.1 41% 75.31 1003.9
08 22:53 W 9 16.09 Fair CLR 13.3 -2.2 34% 75.34 1004.3
08 21:53 NW 11 16.09 Fair CLR 15 -2.2 31% 75.34 1004.4
08 20:53 NW 13 16.09 Fair CLR 17.2 -2.2 27% 75.34 1004.1
08 19:53 NW 19 G 43 16.09 Fair CLR 19.4 -2.8 22% 75.26 1003.4
08 18:53 NW 28 G 52 16.09 Fair CLR 21.1 -3.9 23.9 19.4 18% 75.23 1003.0
08 17:53 NW 37 G 59 16.09 A Few Clouds and Breezy FEW100 22.2 -1.1 21% 75.21 1002.8
08 16:53 NW 28 G 44 16.09 A Few Clouds FEW100 21.7 -1.1 22% 75.21 1002.7
08 15:53 NW 30 G 43 16.09 Partly Cloudy SCT110 23.3 0 21% 75.21 1002.7
08 14:53 W 20 G 39 16.09 Mostly Cloudy BKN100 21.7 -1.7 21% 75.26 1003.4
08 13:53 W 24 G 39 16.09 Mostly Cloudy BKN100 BKN120 20.6 0 25% 75.34 1004.5
08 12:53 W 30 G 48 16.09 Partly Cloudy SCT110 21.1 -2.8 22.2 7.2 20% 75.36 1004.9
08 11:53 W 28 G 39 16.09 Fair CLR 20.6 -3.9 19% 75.44 1005.8
08 10:53 W 20 16.09 Fair CLR 19.4 -5 19% 75.49 1006.5
08 09:53 W 20 16.09 Mostly Cloudy BKN095 17.2 -2.2 27% 75.57 1007.3
08 08:53 SW 15 16.09 Mostly Cloudy BKN095 13.3 -2.8 33% 75.57 1007.7
08 07:53 SW 15 16.09 Overcast OVC100 10.6 -3.3 38% 75.59 1008.0
08 06:53 SW 19 16.09 Overcast OVC110 7.2 -5 7.2 5.6 42% 4 75.59 1008.0
08 05:53 S 17 16.09 Fair CLR 5.6 -5.6 45% 3 75.59 1007.9
08 04:53 SW 19 16.09 Fair CLR 6.7 -5.6 41% 4 75.62 1008.2
08 03:53 SW 17 16.09 Fair CLR 6.1 -5.6 43% 3 75.64 1008.6
08 02:53 S 15 16.09 Fair CLR 6.7 -5.6 41% 4 75.64 1008.7
08 01:53 S 13 16.09 Fair CLR 6.1 -6.1 42% 4 75.67 1009.1
08 00:53 S 13 16.09 Fair CLR 6.7 -6.1 16.1 5.6 40% 4 75.69 1009.6
07 23:53 S 7 16.09 Fair CLR 7.8 -5.6 38% 7 75.72 1009.8
07 22:53 S 6 16.09 Fair CLR 10 -6.1 32% 75.74 1010.1
07 21:53 Calm 16.09 Fair CLR 11.7 -7.2 26% 75.74 1010.2
07 20:53 NW 6 16.09 Fair CLR 12.8 -6.7 25% 75.72 1009.9
07 19:53 N 9 16.09 Fair CLR 14.4 -6.7 23% 75.67 1009.3
07 18:53 NW 19 16.09 Fair CLR 16.1 -6.7 16.7 12.2 20% 75.67 1009.3
07 17:53 W 15 G 41 16.09 Fair CLR 16.7 -6.1 21% 75.69 1009.3
07 16:53 W 22 16.09 Fair CLR 16.1 -6.7 20% 75.72 1009.7
07 15:53 NW 17 16.09 Fair CLR 16.1 -6.7 20% 75.74 1010.1
07 14:53 W 26 G 41 16.09 Fair CLR 15.6 -7.2 20% 75.79 1010.9
07 13:53 NW 13 16.09 Fair CLR 13.9 -7.2 23% 75.82 1011.4
07 12:53 Calm 16.09 Fair CLR 12.2 -7.2 13.3 3.9 25% 75.84 1012.0
07 11:53 Vrbl 7 16.09 Fair CLR 12.2 -6.7 26% 75.92 1012.7
Date Time (cdt) Wind (kph) Vis. (km) Weather Sky Cond. Air Dwpt Max. Min. Relative Humidity Wind Chill (°C) Heat Index (°C) altimeter (cm) sea level (mb) 1 hr 3 hr 6 hr
6 hour
Temperature (ºC) Pressure Precipitation (cm)